Pagrindinis puslapis
METAR-TAF:

METAR-TAF

Oro uostai :

Stokholmas-Skavsta, Švedija

platuma: 58-47N, ilguma: 016-55E, Aukštis: 43 m

Dabartinis oras

Ataskaita buvo paskelbta 44 minutes, ne 21:50 UTC
Vėjas 5 kt iš Rytų/Pietryčių, svyruoja nuo Rytų ir Pietų/Pietryčių
Temperatūra 12°C
Drėgmė 94%
Slėgis 1012 hPa
Matomumas 10 km arba daugiau
nėra debesų žemiau 1500 m ir nėra kamuolinių lietaus debesų

METAR: ESKN 162150Z 11005KT 080V150 CAVOK 12/11 Q1012

Laikas: 00:34 (22:34 UTC)

Prognozė

Ataskaita buvo paskelbta 2 valandos ir 4 minutes, ne 20:30 UTC
Prognozė galioja nuo 16 metu 21 UTC su 17 metu 21 UTC
Vėjas 10 kt iš Pietų/Pietryčių
Matomumas 10 km arba daugiau
nėra debesų žemiau 1500 m ir nėra kamuolinių lietaus debesų
Tikimybė 40%
nuo 17 metu 17 UTC su 17 metu 21 UTC
Išsisklaidę debesys ne aukštis 2000 ft, Liūtiniai kamuoliniai debesys.

TAF: ESKN 162030Z 1621/1721 15010KT CAVOK PROB40 1717/1721 SCT020CB

Orai ataskaitas ir orų prognozės (METAR, TAF).

turimą stotys yra geltonos ir raudonos taškus žemėlapyje.

Perkelti pele per norėdami pamatyti stoties vardą.

Tada spustelėkite, norėdami matyti oro stebėjimo ir prognozės.

Norėdami pakeisti žemėlapį: spustelėkite ant žalios mygtukų su juodo kryžiaus žemyn,; žalią mygtuką su brūkšneliu, jei norite nutolinti; arba žalių rodyklių gretimoms žemėlapius.


METAR-TAF: